Time;durP1;ratioP1;P1;durP2;ratioP2;P2;SDS_P1;SDS_P2;PMS_P1;PMS_P2;Temp;Humidity;BMP_temperature;BMP_pressure;BME280_temperature;BME280_humidity;BME280_pressure;Samples;Min_cycle;Max_cycle;Signal;HPM_P1;HPM_P2
2022/08/12 00:42:59;;;;;;;2.07;1.50;;;;;;;12.70;76.98;97995.06;7615346;23;20216;-68
2022/08/12 00:49:23;;;;;;;1.87;1.60;;;;;;;12.70;76.57;97995.06;7617981;23;20213;-68
2022/08/12 00:52:25;;;;;;;3.00;1.40;;;;;;;12.67;76.12;97998.84;7589235;23;20223;-68
2022/08/12 00:55:27;;;;;;;2.43;1.50;;;;;;;12.62;76.43;97995.72;7590019;23;20739;-68
2022/08/12 00:58:31;;;;;;;1.47;1.37;;;;;;;12.58;76.61;97992.47;7616003;23;20298;-68
2022/08/12 01:01:53;;;;;;;2.87;1.77;;;;;;;12.51;76.67;97983.38;7616079;23;20260;-68
2022/08/12 01:11:59;;;;;;;1.27;1.17;;;;;;;12.27;77.96;97977.47;7615815;23;20684;-69
2022/08/12 01:15:02;;;;;;;2.30;1.40;;;;;;;12.27;77.66;97980.13;7615030;23;20208;-69
2022/08/12 01:18:05;;;;;;;1.93;1.43;;;;;;;12.23;77.80;97976.03;7591398;23;20200;-69
2022/08/12 01:21:25;;;;;;;2.23;1.50;;;;;;;12.22;78.16;97978.81;7615024;23;20259;-69
2022/08/12 01:24:27;;;;;;;1.67;1.57;;;;;;;12.24;77.87;97976.88;7589852;23;20527;-68
2022/08/12 01:27:34;;;;;;;1.40;1.30;;;;;;;12.27;77.86;97979.28;7589524;23;20214;-68
2022/08/12 01:30:39;;;;;;;1.83;1.27;;;;;;;12.25;78.00;97979.41;7565825;23;20213;-69
2022/08/12 01:34:02;;;;;;;1.53;1.43;;;;;;;12.18;78.16;97972.91;7565705;23;20772;-68
2022/08/12 01:37:07;;;;;;;2.07;1.40;;;;;;;12.10;78.60;97962.13;7614926;23;20219;-68
2022/08/12 01:40:10;;;;;;;1.87;1.40;;;;;;;12.02;78.34;97952.19;7614749;23;20446;-68
2022/08/12 01:43:33;;;;;;;1.83;1.53;;;;;;;11.96;78.43;97951.84;7589089;23;20212;-68
2022/08/12 01:46:56;;;;;;;1.57;1.40;;;;;;;11.96;78.42;97951.84;7615769;23;20247;-68
2022/08/12 01:50:23;;;;;;;4.00;1.60;;;;;;;11.90;78.84;97947.03;7615732;23;20222;-68
2022/08/12 01:53:40;;;;;;;1.50;1.40;;;;;;;11.90;79.03;97949.69;7615225;23;20220;-68
2022/08/12 01:57:17;;;;;;;1.80;1.70;;;;;;;11.84;78.95;97953.69;7614648;23;20221;-68
2022/08/12 02:00:51;;;;;;;1.47;1.37;;;;;;;11.77;79.65;97966.56;7595594;23;20640;-68
2022/08/12 02:11:18;;;;;;;1.77;1.60;;;;;;;11.69;79.40;97963.63;7615070;23;20270;-68
2022/08/12 02:14:39;;;;;;;1.80;1.47;;;;;;;11.68;79.55;97961.16;7589204;23;20217;-68
2022/08/12 02:17:53;;;;;;;2.10;1.40;;;;;;;11.67;79.72;97960.31;7589893;23;20227;-68
2022/08/12 02:21:26;;;;;;;2.23;1.33;;;;;;;11.67;79.89;97947.09;7613518;23;20214;-68
2022/08/12 02:24:30;;;;;;;1.70;1.50;;;;;;;11.68;79.89;97945.28;7587423;23;20215;-69
2022/08/12 02:27:38;;;;;;;2.43;1.60;;;;;;;11.67;79.93;97947.09;7589488;23;20235;-68
2022/08/12 02:30:41;;;;;;;2.00;1.47;;;;;;;11.67;79.92;97939.16;7615847;23;20221;-69
2022/08/12 02:33:46;;;;;;;1.83;1.67;;;;;;;11.66;79.82;97948.03;7614994;23;20219;-68
2022/08/12 02:36:52;;;;;;;2.43;1.73;;;;;;;11.64;79.98;97949.13;7589652;23;20219;-68
2022/08/12 02:39:57;;;;;;;1.60;1.50;;;;;;;11.54;80.18;97951.66;7612562;23;20268;-68
2022/08/12 02:43:10;;;;;;;2.90;1.47;;;;;;;11.48;80.26;97946.84;7589312;23;20223;-68
2022/08/12 02:46:17;;;;;;;1.50;1.40;;;;;;;11.42;80.54;97947.34;7619431;23;20211;-68
2022/08/12 02:49:30;;;;;;;2.73;1.50;;;;;;;11.32;80.05;97947.25;7614615;23;20665;-68
2022/08/12 02:52:33;;;;;;;1.63;1.50;;;;;;;11.26;80.74;97947.72;7615513;23;20299;-68
2022/08/12 02:55:36;;;;;;;2.17;1.50;;;;;;;11.29;81.04;97941.34;7590052;23;20317;-69
2022/08/12 02:58:39;;;;;;;4.07;1.77;;;;;;;11.32;80.97;97941.94;7615587;23;20221;-69
2022/08/12 03:01:49;;;;;;;2.30;1.30;;;;;;;11.39;80.91;97950.22;7614863;23;20692;-69
2022/08/12 03:04:56;;;;;;;3.20;1.40;;;;;;;11.43;80.59;97943.75;7614597;23;20290;-69
2022/08/12 03:08:03;;;;;;;1.93;1.40;;;;;;;11.46;80.58;97939.06;7614142;23;20222;-69
2022/08/12 03:11:20;;;;;;;3.10;1.30;;;;;;;11.47;80.53;97937.25;7614163;23;20211;-69
2022/08/12 03:14:27;;;;;;;1.37;1.27;;;;;;;11.48;80.40;97931.00;7566696;23;20211;-69
2022/08/12 03:17:37;;;;;;;1.60;1.50;;;;;;;11.48;80.43;97931.84;7622958;23;20297;-69
2022/08/12 03:20:39;;;;;;;2.00;1.70;;;;;;;11.43;80.45;97934.00;7614875;23;20549;-69
2022/08/12 03:23:44;;;;;;;1.77;1.40;;;;;;;11.41;80.58;97937.72;7612909;23;20220;-69
2022/08/12 03:26:50;;;;;;;1.50;1.40;;;;;;;11.42;80.44;97937.63;7615066;23;20353;-69
2022/08/12 03:29:56;;;;;;;1.80;1.40;;;;;;;11.39;80.56;97935.22;7613976;23;20223;-69
2022/08/12 03:33:00;;;;;;;1.70;1.60;;;;;;;11.30;80.83;97938.59;7589319;23;20237;-69
2022/08/12 03:36:05;;;;;;;2.27;1.43;;;;;;;11.19;81.08;97943.03;7616401;23;20244;-68
2022/08/12 03:42:34;;;;;;;2.00;1.53;;;;;;;10.94;81.45;97958.16;7617954;23;20180;-69
2022/08/12 04:02:25;;;;;;;3.43;2.00;;;;;;;11.01;81.64;97956.72;7590181;23;20542;-69
2022/08/12 04:05:30;;;;;;;2.43;1.90;;;;;;;11.10;81.25;97961.28;7616092;23;20219;-69
2022/08/12 04:08:58;;;;;;;2.07;1.63;;;;;;;11.22;81.40;97969.22;7590123;23;20686;-70
2022/08/12 04:15:27;;;;;;;2.03;1.70;;;;;;;11.27;81.23;97965.28;7615761;23;20207;-70
2022/08/12 04:18:31;;;;;;;4.70;1.57;;;;;;;11.24;81.13;97964.66;7590017;23;20603;-69
2022/08/12 04:21:35;;;;;;;2.07;1.70;;;;;;;11.23;81.10;97962.97;7615901;23;20222;-68
2022/08/12 04:24:43;;;;;;;2.17;1.70;;;;;;;11.27;81.58;97956.50;7615702;23;20222;-69
2022/08/12 04:27:53;;;;;;;2.13;1.70;;;;;;;11.33;81.54;97959.50;7592001;23;20214;-69
2022/08/12 04:30:56;;;;;;;2.10;1.63;;;;;;;11.44;81.24;97963.94;7614315;23;20253;-69
2022/08/12 04:33:59;;;;;;;2.83;1.47;;;;;;;11.54;80.94;97961.41;7615806;23;20407;-70
2022/08/12 04:37:01;;;;;;;2.63;1.40;;;;;;;11.63;80.88;97965.94;7590802;23;20720;-69
2022/08/12 04:40:04;;;;;;;1.93;1.70;;;;;;;11.70;80.55;97953.91;7615560;23;20506;-70
2022/08/12 04:43:06;;;;;;;2.00;1.50;;;;;;;11.76;80.49;97964.88;7591110;23;20590;-69
2022/08/12 04:46:28;;;;;;;1.47;1.37;;;;;;;11.84;80.38;97964.25;7590281;23;20212;-70
2022/08/12 04:49:35;;;;;;;2.03;1.60;;;;;;;11.84;80.03;97969.53;7615651;23;20299;-70
2022/08/12 04:52:38;;;;;;;1.60;1.00;;;;;;;11.87;80.18;97969.31;7615257;23;20565;-69
2022/08/12 04:55:41;;;;;;;1.73;1.63;;;;;;;11.91;80.13;97972.53;7616070;23;20750;-70
2022/08/12 04:58:44;;;;;;;1.60;1.50;;;;;;;11.95;80.18;97966.88;7589978;23;20741;-69
2022/08/12 05:01:53;;;;;;;1.30;1.20;;;;;;;12.03;79.85;97966.25;7588490;23;20702;-70
2022/08/12 05:04:55;;;;;;;2.23;1.67;;;;;;;12.11;80.01;97977.88;7616777;23;20211;-70
2022/08/12 05:08:03;;;;;;;2.20;1.50;;;;;;;12.17;79.84;97976.56;7588130;23;20216;-69
2022/08/12 05:11:05;;;;;;;2.43;1.40;;;;;;;12.21;79.61;97975.31;7615745;23;20672;-69
2022/08/12 05:14:09;;;;;;;1.73;1.63;;;;;;;12.24;79.70;97976.88;7615100;23;20672;-69
2022/08/12 05:17:15;;;;;;;4.77;1.60;;;;;;;12.32;79.39;97980.56;7615140;23;20214;-69
2022/08/12 05:20:19;;;;;;;1.87;1.63;;;;;;;12.41;79.43;97982.44;7615155;23;20229;-69
2022/08/12 05:23:21;;;;;;;1.67;1.40;;;;;;;12.49;79.23;97974.72;7590128;23;20242;-69
2022/08/12 05:26:24;;;;;;;1.47;1.30;;;;;;;12.61;79.04;97980.78;7589368;23;20208;-70
2022/08/12 05:29:28;;;;;;;1.77;1.30;;;;;;;12.74;78.87;97978.81;7614758;23;20688;-69
2022/08/12 05:32:50;;;;;;;1.90;1.40;;;;;;;12.88;78.42;97978.47;7588859;23;20711;-69
2022/08/12 05:35:54;;;;;;;1.97;1.60;;;;;;;13.05;77.89;97984.16;7615575;23;20208;-69
2022/08/12 05:38:56;;;;;;;2.13;1.30;;;;;;;13.20;77.44;97978.41;7616282;23;20698;-69
2022/08/12 05:41:58;;;;;;;1.70;1.60;;;;;;;13.34;76.95;97987.81;7614561;23;20243;-70
2022/08/12 05:45:00;;;;;;;1.23;1.13;;;;;;;13.50;77.44;97987.31;7590586;23;20354;-70
2022/08/12 05:48:03;;;;;;;1.97;1.70;;;;;;;13.63;76.82;97998.53;7615397;23;20287;-70
2022/08/12 05:51:05;;;;;;;2.13;1.57;;;;;;;13.80;76.56;97995.22;7615725;23;20619;-69
2022/08/12 05:54:10;;;;;;;2.30;1.60;;;;;;;13.96;75.78;98000.88;7614638;23;20613;-70
2022/08/12 05:57:12;;;;;;;1.50;1.40;;;;;;;14.18;75.67;97996.28;7613802;23;20237;-69
2022/08/12 06:00:16;;;;;;;2.20;1.40;;;;;;;14.45;75.19;97995.66;7614145;23;20188;-69
2022/08/12 06:03:20;;;;;;;1.90;1.60;;;;;;;14.67;74.81;97990.88;7588976;23;20621;-70
2022/08/12 06:06:23;;;;;;;3.23;1.80;;;;;;;14.91;74.25;97990.44;7614782;23;20216;-70
2022/08/12 06:09:29;;;;;;;2.00;1.60;;;;;;;15.11;73.68;97993.88;7589359;23;20212;-70
2022/08/12 06:12:31;;;;;;;3.30;1.63;;;;;;;15.26;74.09;97994.28;7615144;23;20641;-70
2022/08/12 06:15:37;;;;;;;5.63;2.40;;;;;;;15.45;73.84;97994.22;7615624;23;20721;-70
2022/08/12 06:18:40;;;;;;;4.13;2.27;;;;;;;15.61;73.41;97982.97;7614761;23;20401;-70
2022/08/12 06:21:42;;;;;;;2.73;2.33;;;;;;;15.81;73.44;97987.19;7612842;23;20215;-70
2022/08/12 06:24:44;;;;;;;4.37;2.70;;;;;;;16.00;73.00;97984.44;7589005;23;20204;-70
2022/08/12 06:27:47;;;;;;;3.90;2.40;;;;;;;16.23;72.82;97990.16;7614289;23;20315;-70
2022/08/12 06:31:15;;;;;;;4.33;2.13;;;;;;;16.55;72.15;97981.66;7593557;23;20216;-70
2022/08/12 06:34:30;;;;;;;5.33;2.20;;;;;;;16.88;70.67;97980.09;7592122;23;20695;-70
2022/08/12 06:37:54;;;;;;;2.10;1.83;;;;;;;17.01;70.08;97974.38;7587693;23;20208;-70
2022/08/12 06:44:21;;;;;;;1.83;1.30;;;;;;;17.35;64.42;97967.28;7613841;23;20216;-69
2022/08/12 06:47:23;;;;;;;1.10;1.00;;;;;;;17.53;63.14;97969.84;7613870;23;20243;-70
2022/08/12 06:50:25;;;;;;;1.37;1.03;;;;;;;17.70;62.80;97976.97;7613909;23;20239;-70
2022/08/12 06:53:32;;;;;;;1.70;0.90;;;;;;;17.87;61.52;97977.84;7588603;23;20796;-70
2022/08/12 06:56:35;;;;;;;2.03;1.00;;;;;;;18.06;61.29;97975.78;7615656;23;20212;-70
2022/08/12 06:59:57;;;;;;;1.30;1.20;;;;;;;18.25;60.58;97977.31;7613411;23;20216;-69
2022/08/12 07:03:02;;;;;;;1.10;1.00;;;;;;;18.53;59.85;97975.19;7614064;23;20358;-69
2022/08/12 07:06:24;;;;;;;1.70;1.20;;;;;;;18.90;58.89;97982.72;7613315;23;20209;-70
2022/08/12 07:09:26;;;;;;;2.40;1.23;;;;;;;19.24;58.22;97974.50;7587575;23;20208;-70
2022/08/12 07:12:53;;;;;;;1.30;0.97;;;;;;;19.58;57.24;97960.88;7615050;23;20829;-70
2022/08/12 07:15:57;;;;;;;2.10;1.37;;;;;;;19.74;55.62;97971.53;7587677;23;20550;-70
2022/08/12 07:18:59;;;;;;;1.20;0.97;;;;;;;19.98;54.43;97970.56;7613741;23;20695;-71
2022/08/12 07:22:05;;;;;;;1.37;1.10;;;;;;;20.30;53.30;97956.16;7565321;23;20219;-71
2022/08/12 07:28:32;;;;;;;2.83;1.20;;;;;;;20.70;50.88;97949.69;7613663;23;20299;-70
2022/08/12 07:31:38;;;;;;;1.30;1.00;;;;;;;20.80;50.34;97957.50;7614264;23;20240;-70
2022/08/12 07:34:41;;;;;;;2.20;1.30;;;;;;;21.04;49.98;97957.28;7617002;23;20217;-69
2022/08/12 07:37:44;;;;;;;1.10;1.10;;;;;;;21.62;48.72;97953.84;7613648;23;20692;-69
2022/08/12 07:40:46;;;;;;;1.00;0.90;;;;;;;21.90;47.86;97956.69;7615062;23;20528;-70
2022/08/12 07:43:52;;;;;;;1.50;0.90;;;;;;;22.09;46.93;97956.09;7614639;23;20219;-69
2022/08/12 07:46:55;;;;;;;1.03;0.97;;;;;;;22.55;45.98;97965.72;7613597;23;20217;-70
2022/08/12 07:49:58;;;;;;;2.30;1.47;;;;;;;22.67;45.52;97962.31;7614070;23;20236;-70
2022/08/12 07:53:06;;;;;;;1.10;1.00;;;;;;;23.25;45.03;97963.03;7613969;23;20209;-70
2022/08/12 07:56:09;;;;;;;1.17;1.07;;;;;;;23.77;43.94;97962.53;7588942;23;20555;-70
2022/08/12 07:59:12;;;;;;;3.73;1.00;;;;;;;23.77;43.75;97969.78;7614928;23;20225;-69
2022/08/12 08:02:14;;;;;;;1.20;1.10;;;;;;;24.09;42.44;97963.72;7614497;23;20674;-69
2022/08/12 08:05:17;;;;;;;1.30;1.20;;;;;;;24.23;41.71;97968.19;7588278;23;20236;-69
2022/08/12 08:08:22;;;;;;;1.30;1.10;;;;;;;24.47;41.84;97969.47;7588639;23;20680;-69
2022/08/12 08:14:46;;;;;;;1.50;1.00;;;;;;;25.12;41.53;97977.91;7587928;23;20221;-71
2022/08/12 08:18:03;;;;;;;3.57;1.50;;;;;;;24.90;39.38;97980.75;7587852;23;20217;-68
2022/08/12 08:21:05;;;;;;;1.00;0.90;;;;;;;24.92;40.04;97986.81;7613684;23;20531;-68
2022/08/12 08:24:15;;;;;;;1.80;1.17;;;;;;;24.93;39.95;97983.09;7616173;23;20181;-68
2022/08/12 08:27:17;;;;;;;2.30;1.07;;;;;;;24.51;40.90;97986.94;7616137;23;20185;-68
2022/08/12 08:30:19;;;;;;;1.83;1.10;;;;;;;24.73;40.39;97979.50;7617629;23;20181;-68
2022/08/12 08:33:22;;;;;;;1.50;1.17;;;;;;;25.18;39.57;97977.06;7590599;23;21476;-68
2022/08/12 08:36:45;;;;;;;1.57;1.17;;;;;;;25.89;39.83;97975.28;7595053;23;20217;-67
2022/08/12 08:39:49;;;;;;;1.50;1.30;;;;;;;25.92;37.24;97976.75;7615930;23;20208;-68
2022/08/12 08:42:51;;;;;;;1.10;1.00;;;;;;;25.75;37.48;97980.97;7615423;23;20220;-69
2022/08/12 08:45:55;;;;;;;1.40;1.13;;;;;;;25.68;37.04;97984.50;7590777;23;20219;-67
2022/08/12 08:49:00;;;;;;;1.25;1.10;;;;;;;25.71;36.12;97975.97;7615841;23;20208;-68
2022/08/12 08:52:03;;;;;;;2.20;1.50;;;;;;;25.65;36.59;97982.22;7590162;23;20205;-68
2022/08/12 08:55:07;;;;;;;1.30;1.10;;;;;;;25.93;36.36;97986.53;7589100;23;20707;-68
2022/08/12 08:58:10;;;;;;;1.40;1.23;;;;;;;25.91;37.39;97986.72;7615134;23;20216;-69
2022/08/12 09:01:20;;;;;;;1.75;1.00;;;;;;;25.68;37.04;97978.25;7615958;23;20208;-68
2022/08/12 09:04:25;;;;;;;1.83;1.30;;;;;;;25.68;36.79;97981.81;7621979;23;20685;-68
2022/08/12 09:07:49;;;;;;;1.80;1.17;;;;;;;25.81;36.65;97980.94;7616516;23;20531;-70
2022/08/12 09:14:50;;;;;;;3.67;1.05;;;;;;;26.77;33.78;97975.50;7614628;23;20511;-71
2022/08/12 09:17:57;;;;;;;1.45;1.10;;;;;;;26.42;34.11;97970.53;7589852;23;20267;-70
2022/08/12 09:21:02;;;;;;;3.28;1.10;;;;;;;26.61;35.16;97976.88;7613494;23;20228;-70
2022/08/12 09:24:07;;;;;;;1.30;1.00;;;;;;;26.67;33.88;97970.56;7590577;23;20196;-70
2022/08/12 09:27:15;;;;;;;1.38;1.10;;;;;;;26.54;32.83;97972.53;7615070;23;20666;-71
2022/08/12 09:30:17;;;;;;;1.63;1.13;;;;;;;26.53;33.17;97979.84;7615672;23;20187;-69
2022/08/12 09:33:39;;;;;;;1.65;0.98;;;;;;;26.82;33.02;97973.81;7614747;23;20597;-68
2022/08/12 09:37:02;;;;;;;2.33;1.40;;;;;;;26.73;33.61;97972.41;7613122;23;20216;-69
2022/08/12 09:40:23;;;;;;;2.08;1.30;;;;;;;27.11;33.75;97971.53;7592652;23;20213;-69
2022/08/12 09:47:28;;;;;;;3.13;1.65;;;;;;;27.26;33.27;97963.88;7614102;23;20336;-68
2022/08/12 09:50:35;;;;;;;2.95;1.35;;;;;;;27.39;33.90;97961.06;7615426;23;20212;-72
2022/08/12 09:53:38;;;;;;;1.92;1.63;;;;;;;26.90;34.07;97951.03;7588955;23;20217;-69
2022/08/12 09:56:41;;;;;;;1.58;1.23;;;;;;;27.18;33.98;97950.63;7615367;23;20209;-70
2022/08/12 10:00:08;;;;;;;1.40;1.30;;;;;;;27.11;33.84;97944.44;7615417;23;20517;-69
2022/08/12 10:03:19;;;;;;;2.25;1.25;;;;;;;27.18;30.92;97940.59;7614099;23;20549;-69
2022/08/12 10:06:33;;;;;;;4.55;1.50;;;;;;;27.60;31.02;97940.03;7587888;23;20219;-69
2022/08/12 10:09:54;;;;;;;2.08;1.10;;;;;;;27.08;31.68;97929.44;7614369;23;20700;-69
2022/08/12 10:16:42;;;;;;;2.95;1.40;;;;;;;27.92;30.41;97936.09;7615681;23;20209;-69
2022/08/12 10:19:44;;;;;;;1.98;1.40;;;;;;;27.57;31.46;97926.91;7613333;23;20536;-69
2022/08/12 10:22:57;;;;;;;2.53;1.10;;;;;;;27.98;31.65;97921.63;7614514;23;20548;-69
2022/08/12 10:29:41;;;;;;;4.93;1.52;;;;;;;29.09;30.71;97912.91;7615559;23;20255;-70
2022/08/12 10:33:04;;;;;;;1.52;1.40;;;;;;;29.29;29.70;97913.41;7613343;23;20817;-71
2022/08/12 10:36:20;;;;;;;0.98;0.93;;;;;;;28.90;27.62;97908.66;7615651;23;20486;-69
2022/08/12 10:39:42;;;;;;;2.75;1.25;;;;;;;28.79;28.42;97906.75;7614605;23;20291;-68
2022/08/12 10:46:25;;;;;;;3.13;1.27;;;;;;;28.57;28.54;97901.81;7614866;23;20212;-70
2022/08/12 10:49:33;;;;;;;1.73;1.42;;;;;;;28.10;27.30;97903.53;7613839;23;20589;-70
2022/08/12 10:52:55;;;;;;;2.60;1.17;;;;;;;28.00;29.33;97899.69;7588231;23;20685;-69
2022/08/12 10:55:58;;;;;;;0.93;0.93;;;;;;;28.66;28.05;97886.00;7613286;23;20545;-70
2022/08/12 10:59:06;;;;;;;1.60;1.10;;;;;;;28.77;27.08;97879.81;7586049;23;20216;-70
2022/08/12 11:02:12;;;;;;;1.17;1.00;;;;;;;28.70;28.57;97878.22;7585939;23;20212;-70
2022/08/12 11:05:35;;;;;;;2.25;1.13;;;;;;;29.22;27.80;97888.22;7610633;23;20208;-69
2022/08/12 11:08:57;;;;;;;2.60;1.20;;;;;;;-144.22;100.00;60274.75;7612765;23;20208;-70
2022/08/12 11:12:05;;;;;;;1.83;1.10;;;;;;;30.26;25.92;97886.34;7584870;23;20663;-70
2022/08/12 11:15:27;;;;;;;1.30;1.02;;;;;;;29.53;25.66;97886.22;7612939;23;20295;-71
2022/08/12 11:18:50;;;;;;;1.20;1.00;;;;;;;30.06;26.01;97889.53;7612142;23;20248;-71
2022/08/12 11:21:56;;;;;;;1.67;1.30;;;;;;;30.36;24.88;97896.63;7587778;23;20275;-70
2022/08/12 11:25:07;;;;;;;0.93;0.93;;;;;;;29.71;25.66;97880.63;7613024;23;20213;-70
2022/08/12 11:28:13;;;;;;;1.60;1.10;;;;;;;30.32;24.88;97871.78;7586346;23;20213;-70
2022/08/12 11:31:16;;;;;;;1.90;0.80;;;;;;;30.02;25.34;97868.50;7586287;23;20212;-70
2022/08/12 11:34:19;;;;;;;1.75;1.10;;;;;;;29.95;24.98;97862.34;7586820;23;20216;-71
2022/08/12 11:37:41;;;;;;;1.35;0.95;;;;;;;30.13;25.76;97864.06;7613322;23;20215;-69
2022/08/12 11:41:02;;;;;;;1.42;1.00;;;;;;;30.52;25.20;97862.31;7588988;23;20291;-70
2022/08/12 11:44:05;;;;;;;2.97;1.20;;;;;;;29.57;24.16;97858.28;7612371;23;20667;-71
2022/08/12 11:47:27;;;;;;;2.70;1.10;;;;;;;29.86;25.37;97850.97;7612559;23;20680;-70
2022/08/12 11:50:29;;;;;;;1.20;1.10;;;;;;;29.59;24.90;97858.06;7613942;23;20212;-70
2022/08/12 11:53:34;;;;;;;3.13;0.98;;;;;;;29.38;25.60;97855.97;7611687;23;20239;-70
2022/08/12 11:56:58;;;;;;;1.30;0.95;;;;;;;29.70;25.94;97851.75;7587324;23;20212;-71
2022/08/12 12:00:03;;;;;;;1.30;1.13;;;;;;;29.94;25.76;97847.91;7587385;23;20201;-70
2022/08/12 12:03:25;;;;;;;2.35;0.90;;;;;;;31.05;25.45;97850.94;7612267;23;20205;-71
2022/08/12 12:06:47;;;;;;;2.30;1.20;;;;;;;31.77;25.24;97848.97;7588683;23;20213;-70
2022/08/12 12:09:53;;;;;;;1.55;1.15;;;;;;;32.21;23.52;97848.97;7587956;23;20217;-71
2022/08/12 12:12:56;;;;;;;3.83;1.25;;;;;;;32.54;23.02;97845.97;7615441;23;20223;-70
2022/08/12 12:15:58;;;;;;;0.95;0.95;;;;;;;32.28;22.44;97843.28;7609648;23;20212;-71
2022/08/12 12:19:01;;;;;;;1.63;1.30;;;;;;;31.25;23.55;97839.53;7614655;23;20220;-71
2022/08/12 12:22:03;;;;;;;2.58;1.05;;;;;;;31.28;23.79;97836.28;7612718;23;20283;-71
2022/08/12 12:25:07;;;;;;;3.30;1.27;;;;;;;30.83;24.98;97842.72;7594502;23;20213;-72
2022/08/12 12:28:14;;;;;;;3.67;1.10;;;;;;;30.76;24.10;97842.84;7613961;23;20223;-71
2022/08/12 12:31:36;;;;;;;4.75;1.15;;;;;;;30.87;24.60;97830.22;7613049;23;20294;-72
2022/08/12 12:34:58;;;;;;;0.80;0.80;;;;;;;31.30;24.30;97834.16;7612818;23;20677;-71
2022/08/12 12:38:21;;;;;;;0.80;0.80;;;;;;;31.50;23.39;97818.88;7588864;23;20213;-69
2022/08/12 12:41:27;;;;;;;2.35;1.00;;;;;;;32.00;22.38;97823.31;7614478;23;20217;-70
2022/08/12 12:44:49;;;;;;;1.60;0.90;;;;;;;31.61;22.93;97811.63;7590286;23;20213;-70
2022/08/12 12:47:58;;;;;;;2.80;1.02;;;;;;;31.10;23.48;97815.59;7611879;23;20278;-69
2022/08/12 12:51:15;;;;;;;2.15;0.93;;;;;;;31.12;23.50;97827.09;7587563;23;20212;-70
2022/08/12 12:54:51;;;;;;;2.58;0.90;;;;;;;30.88;23.55;97825.59;7562774;23;20243;-70
2022/08/12 12:57:55;;;;;;;2.13;0.98;;;;;;;30.90;23.08;97816.09;7614164;23;20360;-69
2022/08/12 13:01:03;;;;;;;1.35;0.80;;;;;;;31.78;22.94;97819.78;7612538;23;20208;-69
2022/08/12 13:04:26;;;;;;;1.20;1.10;;;;;;;32.60;21.73;97814.88;7614274;23;20213;-69
2022/08/12 13:07:40;;;;;;;2.83;1.10;;;;;;;32.34;21.32;97809.47;7610198;23;20213;-69
2022/08/12 13:11:02;;;;;;;1.25;1.00;;;;;;;33.08;21.51;97812.25;7585102;23;20299;-70
2022/08/12 13:14:07;;;;;;;1.23;1.08;;;;;;;32.29;21.77;97820.34;7613114;23;20216;-72
2022/08/12 13:17:30;;;;;;;2.53;1.10;;;;;;;31.73;22.09;97804.19;7612572;23;20228;-70
2022/08/12 13:20:52;;;;;;;1.13;1.02;;;;;;;32.38;21.94;97795.03;7610938;23;20217;-66
2022/08/12 13:24:02;;;;;;;3.30;1.00;;;;;;;32.44;20.77;97812.31;7587969;23;21882;-72
2022/08/12 13:27:11;;;;;;;1.98;0.90;;;;;;;31.77;21.40;97799.00;7614511;23;20327;-70
2022/08/12 13:30:16;;;;;;;2.10;0.90;;;;;;;31.77;21.37;97799.84;7615006;23;20176;-70
2022/08/12 13:33:36;;;;;;;2.55;1.92;;;;;;;32.21;21.29;97797.06;7612385;23;20305;-70
2022/08/12 13:36:58;;;;;;;0.90;0.70;;;;;;;32.22;20.70;97794.06;7613005;23;20676;-70
2022/08/12 13:40:00;;;;;;;1.52;0.88;;;;;;;32.49;21.05;97790.47;7613978;23;20204;-70
2022/08/12 13:43:05;;;;;;;0.70;0.70;;;;;;;33.82;19.65;97787.47;7613502;23;20267;-70
2022/08/12 13:46:12;;;;;;;2.33;0.90;;;;;;;34.25;18.78;97786.19;7615149;23;20664;-70
2022/08/12 13:49:14;;;;;;;2.50;0.95;;;;;;;34.54;18.96;97789.25;7615008;23;20222;-71
2022/08/12 13:52:25;;;;;;;0.85;0.80;;;;;;;35.00;17.67;97787.28;7589301;23;20700;-71
2022/08/12 13:55:28;;;;;;;1.23;0.93;;;;;;;35.77;16.88;97781.28;7612921;23;20217;-71
2022/08/12 13:58:33;;;;;;;2.50;1.17;;;;;;;35.94;16.14;97769.91;7612787;23;20271;-71
2022/08/12 14:01:54;;;;;;;1.20;0.80;;;;;;;37.54;15.30;97780.88;7585855;23;20534;-71
2022/08/12 14:04:57;;;;;;;2.50;0.80;;;;;;;38.87;14.20;97786.91;7611385;23;20216;-71
2022/08/12 14:08:07;;;;;;;1.23;0.83;;;;;;;39.14;13.74;97775.13;7585330;23;20404;-70
2022/08/12 14:11:10;;;;;;;1.00;0.85;;;;;;;41.24;12.37;97756.97;7587349;23;20208;-70
2022/08/12 14:14:13;;;;;;;2.47;0.73;;;;;;;41.57;12.41;97768.53;7588827;23;20219;-70
2022/08/12 14:17:18;;;;;;;1.85;0.80;;;;;;;39.83;13.39;97770.44;7586637;23;20222;-70
2022/08/12 14:20:23;;;;;;;2.17;0.60;;;;;;;37.54;15.00;97780.88;7587479;23;20218;-71
2022/08/12 14:23:32;;;;;;;1.70;1.13;;;;;;;37.66;15.20;97770.28;7585558;23;20222;-70
2022/08/12 14:26:55;;;;;;;1.48;0.80;;;;;;;41.36;12.67;97765.50;7593676;23;20275;-69
2022/08/12 14:30:00;;;;;;;1.35;0.90;;;;;;;43.51;10.34;97758.22;7611393;23;20231;-70
2022/08/12 14:33:18;;;;;;;1.30;0.70;;;;;;;44.40;10.33;97752.25;7612621;23;20272;-70
2022/08/12 14:36:23;;;;;;;0.93;0.90;;;;;;;44.92;10.40;97760.09;7609069;23;20282;-71
2022/08/12 14:39:26;;;;;;;1.27;1.02;;;;;;;44.12;10.15;97757.53;7588382;23;20243;-70
2022/08/12 14:42:28;;;;;;;1.30;1.20;;;;;;;43.75;10.54;97748.13;7613977;23;20212;-70
2022/08/12 14:45:30;;;;;;;3.33;1.67;;;;;;;44.95;10.13;97745.44;7613844;23;20591;-70
2022/08/12 14:48:52;;;;;;;1.95;1.80;;;;;;;46.04;9.64;97743.81;7615940;23;20213;-70
2022/08/12 14:51:54;;;;;;;3.75;2.80;;;;;;;45.84;9.28;97732.44;7615658;23;20672;-71
2022/08/12 14:55:16;;;;;;;3.40;3.08;;;;;;;46.14;9.39;97730.19;7613782;23;20212;-71
2022/08/12 15:01:37;;;;;;;6.95;5.07;;;;;;;44.75;10.54;97729.63;7613529;23;20447;-71
2022/08/12 15:02:20;;;;;;;11.93;10.82;;;;;;;43.55;10.89;97725.81;7589126;23;20220;-71
2022/08/12 15:05:22;;;;;;;12.35;11.07;;;;;;;43.38;11.30;97722.00;7589305;23;20234;-70
2022/08/12 15:08:44;;;;;;;11.40;10.20;;;;;;;43.10;10.99;97717.22;7593530;23;20255;-70
2022/08/12 15:11:48;;;;;;;14.30;11.00;;;;;;;43.28;11.57;97719.59;7614593;23;20212;-70
2022/08/12 15:15:05;;;;;;;6.85;5.25;;;;;;;41.25;12.42;97717.88;7612637;23;20220;-70
2022/08/12 15:18:12;;;;;;;3.53;2.80;;;;;;;41.74;11.76;97715.88;7588834;23;20230;-70
2022/08/12 15:21:15;;;;;;;2.90;2.00;;;;;;;41.69;12.21;97716.06;7614160;23;20204;-70
2022/08/12 15:24:19;;;;;;;1.20;1.10;;;;;;;41.98;11.15;97721.00;7588764;23;20255;-70
2022/08/12 15:27:21;;;;;;;1.30;1.20;;;;;;;41.33;11.39;97705.19;7614610;23;20220;-69
2022/08/12 15:30:43;;;;;;;0.90;0.90;;;;;;;40.31;12.69;97711.81;7617276;23;20209;-69
2022/08/12 15:33:48;;;;;;;3.70;2.08;;;;;;;40.80;12.20;97708.88;7567798;23;20228;-69
2022/08/12 15:36:51;;;;;;;3.95;3.20;;;;;;;40.39;13.05;97702.75;7596311;23;20406;-69
2022/08/12 15:39:56;;;;;;;4.53;3.50;;;;;;;40.62;12.62;97701.59;7567307;23;20215;-71
2022/08/12 15:43:04;;;;;;;11.40;8.80;;;;;;;40.43;12.95;97698.25;7589174;23;20287;-70
2022/08/12 15:46:10;;;;;;;11.18;8.68;;;;;;;39.80;13.12;97691.69;7616346;23;20208;-70
2022/08/12 15:49:17;;;;;;;8.82;6.40;;;;;;;39.40;13.75;97687.91;7618494;23;20537;-69
2022/08/12 15:52:25;;;;;;;5.22;4.32;;;;;;;39.26;13.63;97692.59;7590556;23;20287;-69
2022/08/12 15:55:29;;;;;;;5.53;4.03;;;;;;;39.47;13.69;97682.75;7590252;23;20217;-70
2022/08/12 15:58:37;;;;;;;4.82;4.32;;;;;;;38.49;15.25;97681.34;7591007;23;20533;-70
2022/08/12 16:01:53;;;;;;;7.65;6.63;;;;;;;34.78;20.39;97686.13;7616999;23;20653;-71
2022/08/12 16:04:56;;;;;;;6.13;5.53;;;;;;;32.34;21.65;97684.63;7616566;23;20205;-71
2022/08/12 16:07:59;;;;;;;6.88;5.78;;;;;;;31.08;22.61;97686.88;7616416;23;20208;-70
2022/08/12 16:11:02;;;;;;;7.68;6.65;;;;;;;29.92;22.84;97688.63;7590444;23;20212;-71
2022/08/12 16:14:16;;;;;;;7.03;6.07;;;;;;;29.39;25.31;97689.00;7616130;23;20558;-70
2022/08/12 16:17:19;;;;;;;7.07;5.93;;;;;;;29.24;27.24;97693.06;7616917;23;20252;-70
2022/08/12 16:20:42;;;;;;;9.38;6.72;;;;;;;28.77;29.19;97686.03;7595724;23;20290;-70
2022/08/12 16:23:48;;;;;;;11.00;7.45;;;;;;;27.98;30.81;97690.16;7590680;23;20647;-68
2022/08/12 16:26:58;;;;;;;7.80;6.20;;;;;;;27.80;31.68;97688.34;7616533;23;20212;-68
2022/08/12 16:30:03;;;;;;;9.13;6.50;;;;;;;27.62;32.09;97691.16;7616991;23;20267;-70
2022/08/12 16:33:15;;;;;;;7.97;6.15;;;;;;;27.36;32.78;97689.59;7617012;23;20290;-70
2022/08/12 16:36:18;;;;;;;5.00;4.55;;;;;;;27.05;33.61;97685.22;7597919;23;20211;-65
2022/08/12 16:39:21;;;;;;;5.72;3.97;;;;;;;26.72;33.32;97683.69;7589353;23;20936;-69
2022/08/12 16:42:24;;;;;;;5.55;3.53;;;;;;;26.40;34.48;97695.69;7614620;23;20214;-69